createdAt,value
2018-05-15T00:00:57.800Z,13.50
2018-05-15T00:03:25.287Z,13.50
2018-05-15T00:05:53.558Z,13.40
2018-05-15T00:08:21.138Z,13.40
2018-05-15T00:10:48.716Z,13.40
2018-05-15T00:13:16.289Z,13.30
2018-05-15T00:15:44.880Z,13.20
2018-05-15T00:18:12.487Z,13.20
2018-05-15T00:20:40.010Z,13.30
2018-05-15T00:23:07.533Z,13.20
2018-05-15T00:25:35.076Z,13.30
2018-05-15T00:28:04.129Z,13.10
2018-05-15T00:30:32.521Z,13.00
2018-05-15T00:33:00.011Z,13.00
2018-05-15T00:35:27.548Z,13.00
2018-05-15T00:37:55.082Z,13.00
2018-05-15T00:40:22.596Z,12.90
2018-05-15T00:42:50.144Z,12.90
2018-05-15T00:45:17.745Z,12.90
2018-05-15T00:47:46.325Z,12.90
2018-05-15T00:50:13.987Z,12.90
2018-05-15T00:52:41.512Z,12.90
2018-05-15T00:55:20.827Z,12.90
2018-05-15T00:57:48.603Z,12.90
2018-05-15T01:00:16.251Z,12.90
2018-05-15T01:02:43.765Z,13.00
2018-05-15T01:05:11.264Z,13.00
2018-05-15T01:07:38.794Z,13.00
2018-05-15T01:10:06.318Z,13.00
2018-05-15T01:12:34.665Z,13.00
2018-05-15T01:15:02.228Z,13.00
2018-05-15T01:17:29.776Z,13.00
2018-05-15T01:19:57.288Z,12.90
2018-05-15T01:22:24.791Z,12.90
2018-05-15T01:24:53.063Z,12.80
2018-05-15T01:27:20.817Z,12.80
2018-05-15T01:29:48.404Z,12.80
2018-05-15T01:32:16.087Z,12.80
2018-05-15T01:34:43.655Z,12.70
2018-05-15T01:37:11.151Z,12.70
2018-05-15T01:39:38.677Z,12.70
2018-05-15T01:42:06.260Z,12.60
2018-05-15T01:44:33.775Z,12.50
2018-05-15T01:47:02.096Z,12.50
2018-05-15T01:49:29.591Z,12.50
2018-05-15T01:51:57.108Z,12.40
2018-05-15T01:54:24.667Z,12.40
2018-05-15T01:56:52.200Z,12.30
2018-05-15T01:59:19.738Z,12.20
2018-05-15T02:01:47.291Z,12.10
2018-05-15T02:04:15.226Z,12.00
2018-05-15T02:06:42.795Z,12.00
2018-05-15T02:09:10.356Z,11.90
2018-05-15T02:11:38.648Z,11.60
2018-05-15T02:14:06.921Z,11.50
2018-05-15T02:16:34.550Z,11.60
2018-05-15T02:19:02.087Z,11.50
2018-05-15T02:21:29.590Z,11.50
2018-05-15T02:23:57.883Z,11.30
2018-05-15T02:26:25.431Z,11.30
2018-05-15T02:28:52.958Z,11.20
2018-05-15T02:31:20.495Z,11.10
2018-05-15T02:33:48.135Z,11.00
2018-05-15T02:36:15.735Z,10.90
2018-05-15T02:38:43.275Z,10.80
2018-05-15T02:41:10.807Z,10.70
2018-05-15T02:43:38.310Z,10.60
2018-05-15T02:46:05.868Z,10.40
2018-05-15T02:48:33.418Z,10.30
2018-05-15T02:51:00.932Z,10.30
2018-05-15T02:53:29.247Z,10.30
2018-05-15T02:55:56.780Z,10.20
2018-05-15T02:58:24.311Z,10.20
2018-05-15T03:00:51.879Z,10.20
2018-05-15T03:03:20.246Z,10.20
2018-05-15T03:05:47.901Z,10.20
2018-05-15T03:08:16.415Z,10.20
2018-05-15T03:10:43.966Z,10.10
2018-05-15T03:13:11.535Z,10.10
2018-05-15T03:15:39.832Z,10.10
2018-05-15T03:18:08.113Z,10.00
2018-05-15T03:20:35.651Z,10.00
2018-05-15T03:23:03.971Z,9.90
2018-05-15T03:25:31.474Z,9.90
2018-05-15T03:27:59.011Z,9.90
2018-05-15T03:30:26.534Z,9.90
2018-05-15T03:32:54.093Z,9.80
2018-05-15T03:35:21.637Z,9.70
2018-05-15T03:37:49.935Z,9.60
2018-05-15T03:40:17.519Z,9.60
2018-05-15T03:42:45.121Z,9.60
2018-05-15T03:45:12.693Z,9.60
2018-05-15T03:47:40.955Z,9.60
2018-05-15T03:50:08.475Z,9.60
2018-05-15T03:52:36.056Z,9.70
2018-05-15T03:55:03.599Z,9.60
2018-05-15T03:57:31.119Z,9.60
2018-05-15T03:59:58.632Z,9.60
2018-05-15T04:02:38.019Z,9.60
2018-05-15T04:05:17.452Z,9.60
2018-05-15T04:07:57.510Z,9.70
2018-05-15T04:10:25.020Z,9.80
2018-05-15T04:12:53.332Z,10.00
2018-05-15T04:15:20.870Z,10.00
2018-05-15T04:17:48.454Z,10.10
2018-05-15T04:20:16.057Z,10.20
2018-05-15T04:22:43.629Z,10.30
2018-05-15T04:25:11.160Z,10.30
2018-05-15T04:27:38.692Z,10.40
2018-05-15T04:30:06.268Z,10.60
2018-05-15T04:32:33.785Z,10.70
2018-05-15T04:35:02.120Z,10.90
2018-05-15T04:37:30.379Z,11.00
2018-05-15T04:39:58.675Z,11.20
2018-05-15T04:42:26.218Z,11.20
2018-05-15T04:44:53.745Z,11.30
2018-05-15T04:47:22.121Z,11.60
2018-05-15T04:49:49.647Z,11.50
2018-05-15T04:52:18.151Z,11.80
2018-05-15T04:54:46.298Z,11.80
2018-05-15T04:57:13.831Z,12.00
2018-05-15T04:59:42.131Z,12.20
2018-05-15T05:02:10.415Z,12.40
2018-05-15T05:04:37.948Z,12.30
2018-05-15T05:07:05.493Z,12.50
2018-05-15T05:09:33.020Z,12.70
2018-05-15T05:12:03.531Z,12.80
2018-05-15T05:14:31.060Z,12.90
2018-05-15T05:16:58.624Z,13.10
2018-05-15T05:19:28.988Z,13.30
2018-05-15T05:21:56.509Z,13.30
2018-05-15T05:24:24.780Z,13.40
2018-05-15T05:26:52.426Z,13.40
2018-05-15T05:29:19.940Z,13.50
2018-05-15T05:31:47.567Z,13.70
2018-05-15T05:34:15.174Z,13.80
2018-05-15T05:36:42.686Z,14.10
2018-05-15T05:39:10.228Z,14.20
2018-05-15T05:41:37.752Z,14.10
2018-05-15T05:44:07.243Z,14.00
2018-05-15T05:46:34.764Z,14.20
2018-05-15T05:49:02.292Z,14.20
2018-05-15T05:51:30.545Z,14.50
2018-05-15T05:53:58.089Z,14.50
2018-05-15T05:56:25.604Z,14.70
2018-05-15T05:58:53.209Z,14.90
2018-05-15T06:01:20.736Z,14.90
2018-05-15T06:03:48.332Z,15.10
2018-05-15T06:06:16.759Z,15.20
2018-05-15T06:08:45.173Z,15.20
2018-05-15T06:11:12.742Z,15.20
2018-05-15T06:13:40.252Z,15.30
2018-05-15T06:16:07.746Z,15.50
2018-05-15T06:18:35.373Z,15.60
2018-05-15T06:21:03.006Z,15.70
2018-05-15T06:23:34.972Z,16.20
2018-05-15T06:26:02.488Z,16.20
2018-05-15T06:28:30.019Z,16.20
2018-05-15T06:30:57.529Z,15.90
2018-05-15T06:33:25.050Z,16.30
2018-05-15T06:35:52.548Z,16.70
2018-05-15T06:38:20.859Z,18.30
2018-05-15T06:40:48.567Z,18.30
2018-05-15T06:43:16.155Z,19.20
2018-05-15T06:45:43.704Z,19.30
2018-05-15T06:48:12.000Z,19.80
2018-05-15T06:50:40.305Z,19.80
2018-05-15T06:53:08.604Z,19.80
2018-05-15T06:55:36.926Z,19.50
2018-05-15T06:58:05.287Z,19.50
2018-05-15T07:00:33.630Z,19.70
2018-05-15T07:03:01.127Z,19.30
2018-05-15T07:05:35.785Z,19.20
2018-05-15T07:08:03.314Z,18.60
2018-05-15T07:10:30.866Z,19.30
2018-05-15T07:12:58.363Z,20.10
2018-05-15T07:15:25.899Z,19.90
2018-05-15T07:17:54.195Z,21.20
2018-05-15T07:20:21.770Z,21.10
2018-05-15T07:22:53.064Z,21.80
2018-05-15T07:25:20.635Z,21.70
2018-05-15T07:27:48.248Z,22.90
2018-05-15T07:30:16.912Z,23.20
2018-05-15T07:32:44.750Z,23.60
2018-05-15T07:35:12.279Z,24.20
2018-05-15T07:37:39.796Z,24.20
2018-05-15T07:40:07.355Z,24.40
2018-05-15T07:42:35.703Z,23.50
2018-05-15T07:45:03.240Z,23.40
2018-05-15T07:47:30.772Z,23.70
2018-05-15T07:49:59.088Z,24.90
2018-05-15T07:52:26.588Z,24.90
2018-05-15T07:54:54.088Z,23.10
2018-05-15T07:57:21.657Z,21.40
2018-05-15T07:59:49.225Z,21.60
2018-05-15T08:02:16.741Z,21.50
2018-05-15T08:04:44.259Z,23.00
2018-05-15T08:07:11.807Z,24.70
2018-05-15T08:09:39.353Z,25.10
2018-05-15T08:12:07.860Z,23.60
2018-05-15T08:14:35.430Z,21.80
2018-05-15T08:17:03.007Z,22.30
2018-05-15T08:19:31.272Z,22.10
2018-05-15T08:21:58.782Z,22.10
2018-05-15T08:24:26.304Z,21.10
2018-05-15T08:26:53.795Z,21.60
2018-05-15T08:29:21.350Z,23.50
2018-05-15T08:31:52.747Z,25.00
2018-05-15T08:34:20.605Z,25.00
2018-05-15T08:36:47.983Z,22.30
2018-05-15T08:39:16.363Z,20.40
2018-05-15T08:41:44.910Z,20.30
2018-05-15T08:44:12.536Z,20.20
2018-05-15T08:46:40.059Z,21.20
2018-05-15T08:49:07.550Z,22.30
2018-05-15T08:51:35.863Z,20.50
2018-05-15T08:54:04.136Z,19.30
2018-05-15T08:56:31.641Z,19.20
2018-05-15T08:58:59.924Z,19.40
2018-05-15T09:01:27.464Z,19.40
2018-05-15T09:03:54.969Z,17.70
2018-05-15T09:06:24.755Z,17.60
2018-05-15T09:08:52.257Z,17.40
2018-05-15T09:14:20.563Z,18.00
2018-05-15T09:16:48.104Z,18.40
2018-05-15T09:19:15.675Z,17.40
2018-05-15T09:21:43.244Z,17.10
2018-05-15T09:27:14.534Z,16.70
2018-05-15T09:29:42.820Z,16.20
2018-05-15T09:32:10.314Z,16.20
2018-05-15T09:34:37.882Z,16.40
2018-05-15T09:37:05.399Z,16.50
2018-05-15T09:39:33.797Z,16.50
2018-05-15T09:42:01.335Z,16.50
2018-05-15T09:44:28.867Z,16.60
2018-05-15T09:46:57.208Z,16.80
2018-05-15T09:49:25.449Z,16.60
2018-05-15T09:51:52.988Z,16.60
2018-05-15T09:54:20.518Z,15.90
2018-05-15T09:56:48.060Z,15.60
2018-05-15T09:59:15.591Z,15.40
2018-05-15T10:01:43.891Z,15.80
2018-05-15T10:04:11.417Z,15.80
2018-05-15T10:06:38.951Z,16.50
2018-05-15T10:09:06.491Z,16.10
2018-05-15T10:11:34.161Z,16.50
2018-05-15T10:14:01.694Z,16.90
2018-05-15T10:16:29.231Z,16.70
2018-05-15T10:18:56.763Z,16.80
2018-05-15T10:21:24.295Z,16.60
2018-05-15T10:23:52.592Z,17.30
2018-05-15T10:26:20.934Z,17.80
2018-05-15T10:28:50.355Z,18.10
2018-05-15T10:31:17.921Z,18.10
2018-05-15T10:33:45.472Z,18.00
2018-05-15T10:36:13.805Z,18.50
2018-05-15T10:38:41.364Z,18.50
2018-05-15T10:41:09.631Z,19.40
2018-05-15T10:43:37.184Z,19.40
2018-05-15T10:46:04.705Z,19.00
2018-05-15T10:48:32.236Z,18.60
2018-05-15T10:50:59.751Z,18.10
2018-05-15T10:53:27.326Z,17.90
2018-05-15T10:55:54.847Z,17.60
2018-05-15T10:58:22.350Z,17.60
2018-05-15T11:00:50.621Z,17.70
2018-05-15T11:03:19.714Z,17.20
2018-05-15T11:05:47.274Z,17.30
2018-05-15T11:08:15.222Z,16.30
2018-05-15T11:10:42.795Z,15.90
2018-05-15T11:13:10.329Z,15.90
2018-05-15T11:15:38.614Z,14.20
2018-05-15T11:18:18.728Z,13.80
2018-05-15T11:20:58.085Z,13.70
2018-05-15T11:23:51.465Z,13.00
2018-05-15T11:26:19.743Z,12.30
2018-05-15T11:28:48.115Z,12.30
2018-05-15T11:31:15.708Z,12.20
2018-05-15T11:33:43.211Z,12.30
2018-05-15T11:36:10.765Z,11.90
2018-05-15T11:38:38.298Z,11.70
2018-05-15T11:41:06.595Z,11.90
2018-05-15T11:43:34.120Z,11.90
2018-05-15T11:46:01.646Z,12.10
2018-05-15T11:48:29.675Z,12.30
2018-05-15T11:50:57.363Z,12.40
2018-05-15T11:53:25.111Z,13.00
2018-05-15T11:55:52.753Z,12.90
2018-05-15T11:58:20.268Z,13.50
2018-05-15T12:00:48.563Z,13.90
2018-05-15T12:03:16.906Z,14.40
2018-05-15T12:05:45.264Z,14.60
2018-05-15T12:08:12.853Z,14.60
2018-05-15T12:10:40.994Z,15.00
2018-05-15T12:13:08.453Z,15.40
2018-05-15T12:15:36.022Z,15.60
2018-05-15T12:18:03.554Z,15.60
2018-05-15T12:20:31.080Z,15.20
2018-05-15T12:22:59.373Z,15.60
2018-05-15T12:25:26.942Z,15.50
2018-05-15T12:27:54.525Z,15.60
2018-05-15T12:30:22.080Z,15.50
2018-05-15T12:32:50.407Z,15.30
2018-05-15T12:35:17.959Z,15.30
2018-05-15T12:37:46.308Z,15.30
2018-05-15T12:40:13.879Z,15.30
2018-05-15T12:42:41.397Z,15.30
2018-05-15T12:45:08.924Z,15.10
2018-05-15T12:47:37.212Z,15.60
2018-05-15T12:50:04.803Z,15.60
2018-05-15T12:52:33.103Z,16.20
2018-05-15T12:55:01.489Z,16.60
2018-05-15T12:57:28.998Z,16.60
2018-05-15T12:59:57.275Z,17.20
2018-05-15T13:02:24.836Z,17.20
2018-05-15T13:04:52.367Z,18.20
2018-05-15T13:07:20.734Z,20.40
2018-05-15T13:09:48.276Z,20.30
2018-05-15T13:12:15.838Z,20.70
2018-05-15T13:14:44.090Z,23.00
2018-05-15T13:17:11.594Z,23.00
2018-05-15T13:19:39.082Z,23.20
2018-05-15T13:22:06.584Z,24.90
2018-05-15T13:24:34.897Z,24.40
2018-05-15T13:27:02.474Z,24.40
2018-05-15T13:29:30.770Z,25.40
2018-05-15T13:31:59.097Z,24.80
2018-05-15T13:34:26.615Z,24.80
2018-05-15T13:39:32.479Z,25.10
2018-05-15T13:42:00.792Z,24.80
2018-05-15T13:44:29.143Z,24.00
2018-05-15T13:46:56.648Z,24.00
2018-05-15T13:49:24.186Z,24.00
2018-05-15T13:51:51.745Z,25.10
2018-05-15T13:54:19.556Z,25.40
2018-05-15T13:56:47.310Z,24.60
2018-05-15T13:59:14.907Z,22.80
2018-05-15T14:01:43.196Z,25.50
2018-05-15T14:04:10.773Z,25.50
2018-05-15T14:06:38.355Z,24.60
2018-05-15T14:09:05.831Z,24.60
2018-05-15T14:11:33.373Z,25.20
2018-05-15T14:14:00.903Z,24.40
2018-05-15T14:16:28.477Z,24.30
2018-05-15T14:18:56.028Z,22.20
2018-05-15T14:21:23.535Z,20.00
2018-05-15T14:23:51.897Z,20.20
2018-05-15T14:26:19.482Z,20.20
2018-05-15T14:28:47.027Z,20.00
2018-05-15T14:31:15.398Z,20.10
2018-05-15T14:33:43.033Z,20.10
2018-05-15T14:36:10.652Z,19.70
2018-05-15T14:38:38.991Z,19.90
2018-05-15T14:41:06.671Z,19.90
2018-05-15T14:43:35.021Z,19.40
2018-05-15T14:46:02.607Z,19.40
2018-05-15T14:48:30.135Z,19.40
2018-05-15T14:54:10.741Z,19.30
2018-05-15T14:56:38.222Z,19.50
2018-05-15T14:59:05.699Z,19.00
2018-05-15T15:01:33.174Z,18.80
2018-05-15T15:04:00.646Z,19.10
2018-05-15T15:06:28.232Z,19.20
2018-05-15T15:08:56.466Z,19.20
2018-05-15T15:11:23.929Z,19.20
2018-05-15T15:13:51.529Z,19.20
2018-05-15T15:16:19.034Z,19.10
2018-05-15T15:18:48.015Z,19.10
2018-05-15T15:21:15.513Z,19.20
2018-05-15T15:23:43.116Z,19.10
2018-05-15T15:26:10.484Z,18.70
2018-05-15T15:28:37.950Z,18.50
2018-05-15T15:31:05.507Z,18.30
2018-05-15T15:33:33.838Z,18.60
2018-05-15T15:36:01.388Z,18.60
2018-05-15T15:38:29.631Z,18.90
2018-05-15T15:40:57.093Z,18.90
2018-05-15T15:43:24.639Z,19.00
2018-05-15T15:45:52.158Z,19.30
2018-05-15T15:48:19.690Z,19.10
2018-05-15T15:50:48.003Z,19.10
2018-05-15T15:53:17.155Z,19.10
2018-05-15T15:55:44.834Z,19.10
2018-05-15T15:58:12.543Z,18.90
2018-05-15T16:00:40.031Z,18.80
2018-05-15T16:03:08.734Z,18.80
2018-05-15T16:05:36.966Z,18.40
2018-05-15T16:08:05.598Z,18.10
2018-05-15T16:10:33.059Z,18.10
2018-05-15T16:13:00.532Z,18.00
2018-05-15T16:15:28.004Z,17.90
2018-05-15T16:17:55.498Z,17.00
2018-05-15T16:20:23.053Z,16.00
2018-05-15T16:22:50.699Z,13.90
2018-05-15T16:25:18.195Z,11.50
2018-05-15T16:27:46.481Z,10.40
2018-05-15T16:30:13.943Z,10.40
2018-05-15T16:32:41.524Z,10.40
2018-05-15T16:35:09.857Z,9.90
2018-05-15T16:37:42.528Z,9.90
2018-05-15T16:40:10.003Z,9.80
2018-05-15T16:42:37.471Z,9.70
2018-05-15T16:45:04.943Z,9.70
2018-05-15T16:47:33.173Z,9.80
2018-05-15T16:50:00.642Z,9.80
2018-05-15T16:52:28.119Z,9.80
2018-05-15T16:54:55.694Z,9.80
2018-05-15T16:57:23.234Z,9.80
2018-05-15T16:59:50.727Z,9.90
2018-05-15T17:02:18.286Z,10.00
2018-05-15T17:04:45.906Z,10.00
2018-05-15T17:07:13.452Z,10.10
2018-05-15T17:09:41.699Z,10.20
2018-05-15T17:12:09.157Z,10.20
2018-05-15T17:14:36.822Z,10.20
2018-05-15T17:17:05.087Z,10.30
2018-05-15T17:19:32.550Z,10.20
2018-05-15T17:22:00.198Z,10.30
2018-05-15T17:24:27.796Z,10.30
2018-05-15T17:26:55.266Z,10.40
2018-05-15T17:29:23.902Z,10.50
2018-05-15T17:31:52.155Z,10.50
2018-05-15T17:34:19.799Z,10.50
2018-05-15T17:36:47.347Z,10.50
2018-05-15T17:39:15.018Z,10.50
2018-05-15T17:41:42.638Z,10.50
2018-05-15T17:44:10.168Z,10.60
2018-05-15T17:46:38.463Z,10.60
2018-05-15T17:49:06.748Z,10.60
2018-05-15T17:51:34.266Z,10.60
2018-05-15T17:54:01.852Z,10.70
2018-05-15T17:56:29.362Z,10.70
2018-05-15T17:58:56.894Z,10.70
2018-05-15T18:01:24.435Z,10.70
2018-05-15T18:03:51.991Z,10.60
2018-05-15T18:06:19.565Z,10.60
2018-05-15T18:08:47.211Z,10.60
2018-05-15T18:11:15.683Z,10.60
2018-05-15T18:13:43.274Z,10.60
2018-05-15T18:16:10.854Z,10.60
2018-05-15T18:18:38.372Z,10.70
2018-05-15T18:21:05.979Z,10.70
2018-05-15T18:23:33.460Z,10.70
2018-05-15T18:26:01.786Z,10.80
2018-05-15T18:28:29.327Z,10.70
2018-05-15T18:30:56.859Z,10.70
2018-05-15T18:33:24.412Z,10.60
2018-05-15T18:35:51.957Z,10.60
2018-05-15T18:38:19.592Z,10.60
2018-05-15T18:40:47.896Z,10.50
2018-05-15T18:43:16.676Z,10.60
2018-05-15T18:45:44.212Z,10.50
2018-05-15T18:48:11.754Z,10.50
2018-05-15T18:50:40.108Z,10.50
2018-05-15T18:53:07.712Z,10.50
2018-05-15T18:55:35.232Z,10.60
2018-05-15T18:58:02.828Z,10.50
2018-05-15T19:00:30.302Z,10.40
2018-05-15T19:02:57.825Z,10.40
2018-05-15T19:05:25.360Z,10.30
2018-05-15T19:07:52.952Z,10.30
2018-05-15T19:10:21.311Z,10.30
2018-05-15T19:12:48.857Z,10.30
2018-05-15T19:15:17.182Z,10.20
2018-05-15T19:17:44.708Z,10.20
2018-05-15T19:20:12.319Z,10.30
2018-05-15T19:22:39.881Z,10.20
2018-05-15T19:25:07.471Z,10.20
2018-05-15T19:27:35.743Z,10.30
2018-05-15T19:30:03.389Z,10.30
2018-05-15T19:32:36.508Z,10.30
2018-05-15T19:35:07.788Z,10.40
2018-05-15T19:37:36.067Z,10.40
2018-05-15T19:40:09.466Z,10.30
2018-05-15T19:42:37.107Z,10.30
2018-05-15T19:45:17.964Z,10.30
2018-05-15T19:47:46.388Z,10.30
2018-05-15T19:50:13.907Z,10.30
2018-05-15T19:52:41.439Z,10.30
2018-05-15T19:55:09.215Z,10.20
2018-05-15T19:57:37.114Z,10.20
2018-05-15T20:00:04.725Z,10.10
2018-05-15T20:02:32.230Z,10.20
2018-05-15T20:05:00.192Z,10.20
2018-05-15T20:07:27.711Z,10.10
2018-05-15T20:09:55.228Z,10.20
2018-05-15T20:12:23.707Z,10.20
2018-05-15T20:14:51.761Z,10.10
2018-05-15T20:17:19.405Z,10.10
2018-05-15T20:19:47.078Z,10.00
2018-05-15T20:22:16.410Z,9.90
2018-05-15T20:24:44.159Z,9.90
2018-05-15T20:27:11.743Z,10.00
2018-05-15T20:29:40.065Z,9.90
2018-05-15T20:32:07.589Z,9.90
2018-05-15T20:34:35.173Z,9.90
2018-05-15T20:37:03.915Z,9.90
2018-05-15T20:39:31.414Z,9.90
2018-05-15T20:41:58.961Z,10.00
2018-05-15T20:44:27.463Z,10.10
2018-05-15T20:46:55.310Z,10.00
2018-05-15T20:49:23.460Z,10.10
2018-05-15T20:51:51.616Z,10.20
2018-05-15T20:54:19.956Z,10.10
2018-05-15T20:56:48.351Z,10.10
2018-05-15T20:59:16.014Z,10.10
2018-05-15T21:01:43.594Z,10.10
2018-05-15T21:04:11.142Z,10.00
2018-05-15T21:06:38.662Z,9.90
2018-05-15T21:09:06.196Z,9.90
2018-05-15T21:11:33.730Z,9.90
2018-05-15T21:14:01.266Z,9.90
2018-05-15T21:16:28.771Z,10.00
2018-05-15T21:18:56.292Z,10.10
2018-05-15T21:21:23.822Z,10.10
2018-05-15T21:23:51.430Z,10.20
2018-05-15T21:26:18.999Z,10.30
2018-05-15T21:28:46.602Z,10.30
2018-05-15T21:31:14.179Z,10.30
2018-05-15T21:33:42.485Z,10.40
2018-05-15T21:36:10.020Z,10.30
2018-05-15T21:38:39.182Z,10.40
2018-05-15T21:41:06.775Z,10.40
2018-05-15T21:43:34.367Z,10.40
2018-05-15T21:46:02.687Z,10.40
2018-05-15T21:48:30.210Z,10.40
2018-05-15T21:50:57.722Z,10.50
2018-05-15T21:53:25.243Z,10.40
2018-05-15T21:55:52.796Z,10.40
2018-05-15T21:58:20.318Z,10.40
2018-05-15T22:00:47.854Z,10.40
2018-05-15T22:03:15.728Z,10.40
2018-05-15T22:05:43.330Z,10.30
2018-05-15T22:08:10.860Z,10.30
2018-05-15T22:10:39.179Z,10.20
2018-05-15T22:13:19.482Z,10.10
2018-05-15T22:15:58.825Z,10.10
2018-05-15T22:18:38.890Z,9.90
2018-05-15T22:21:18.450Z,9.90
2018-05-15T22:23:45.559Z,9.90
2018-05-15T22:26:13.154Z,9.80
2018-05-15T22:28:40.639Z,9.80
2018-05-15T22:31:08.272Z,9.80
2018-05-15T22:33:35.797Z,9.90
2018-05-15T22:36:03.332Z,9.90
2018-05-15T22:38:30.858Z,9.90
2018-05-15T22:40:58.393Z,9.90
2018-05-15T22:43:25.932Z,10.00
2018-05-15T22:45:53.468Z,10.00
2018-05-15T22:48:21.000Z,10.10
2018-05-15T22:50:49.360Z,10.10
2018-05-15T22:53:17.797Z,10.20
2018-05-15T22:55:45.723Z,10.10
2018-05-15T22:58:13.272Z,10.10
2018-05-15T23:00:41.554Z,10.20
2018-05-15T23:03:09.844Z,10.10
2018-05-15T23:05:37.423Z,10.00
2018-05-15T23:08:04.930Z,10.10
2018-05-15T23:10:32.484Z,10.10
2018-05-15T23:13:00.020Z,10.10
2018-05-15T23:15:27.538Z,10.00
2018-05-15T23:17:55.072Z,10.00
2018-05-15T23:20:23.350Z,9.90
2018-05-15T23:22:50.991Z,9.90
2018-05-15T23:25:18.575Z,9.90
2018-05-15T23:27:46.152Z,9.90
2018-05-15T23:30:13.662Z,9.90
2018-05-15T23:32:41.195Z,9.80
2018-05-15T23:35:09.481Z,9.80
2018-05-15T23:37:37.809Z,9.70
2018-05-15T23:40:05.395Z,9.70
2018-05-15T23:42:32.938Z,9.70
2018-05-15T23:45:00.432Z,9.60
2018-05-15T23:47:28.763Z,9.50
2018-05-15T23:49:56.351Z,9.50
2018-05-15T23:52:23.859Z,9.50
2018-05-15T23:54:51.388Z,9.50
2018-05-15T23:57:18.934Z,9.50
2018-05-15T23:59:46.551Z,9.50
